createdAt,value
2018-01-11T00:00:01.342Z,4.34
2018-01-11T00:01:54.728Z,4.37
2018-01-11T00:02:54.709Z,4.39
2018-01-11T00:04:48.080Z,4.37
2018-01-11T00:05:48.082Z,4.47
2018-01-11T00:07:41.498Z,4.36
2018-01-11T00:08:41.468Z,4.34
2018-01-11T00:10:34.853Z,4.37
2018-01-11T00:11:34.854Z,4.37
2018-01-11T00:13:28.263Z,4.18
2018-01-11T00:14:28.252Z,3.96
2018-01-11T00:16:21.622Z,3.80
2018-01-11T00:17:21.623Z,3.86
2018-01-11T00:19:15.041Z,3.72
2018-01-11T00:20:15.025Z,3.70
2018-01-11T00:22:08.430Z,3.65
2018-01-11T00:23:08.427Z,3.61
2018-01-11T00:25:01.840Z,3.42
2018-01-11T00:26:01.814Z,3.44
2018-01-11T00:27:55.181Z,3.28
2018-01-11T00:28:55.184Z,3.25
2018-01-11T00:30:48.610Z,3.39
2018-01-11T00:31:48.568Z,3.30
2018-01-11T00:33:41.964Z,3.43
2018-01-11T00:34:41.955Z,3.43
2018-01-11T00:36:35.355Z,3.60
2018-01-11T00:37:35.373Z,3.62
2018-01-11T00:39:28.724Z,3.70
2018-01-11T00:40:28.724Z,3.70
2018-01-11T00:42:22.130Z,3.79
2018-01-11T00:43:22.140Z,3.82
2018-01-11T00:45:15.501Z,4.00
2018-01-11T00:46:15.498Z,3.94
2018-01-11T00:48:08.911Z,4.07
2018-01-11T00:49:08.883Z,4.16
2018-01-11T00:51:02.289Z,4.15
2018-01-11T00:52:02.272Z,4.18
2018-01-11T00:53:55.686Z,4.16
2018-01-11T00:54:55.676Z,4.03
2018-01-11T00:56:49.034Z,3.85
2018-01-11T00:57:49.043Z,3.70
2018-01-11T00:59:42.452Z,3.75
2018-01-11T01:00:42.422Z,3.79
2018-01-11T01:02:35.811Z,3.96
2018-01-11T01:03:35.812Z,4.08
2018-01-11T01:05:29.216Z,4.04
2018-01-11T01:06:29.207Z,4.04
2018-01-11T01:08:22.602Z,4.15
2018-01-11T01:09:22.587Z,4.14
2018-01-11T01:11:15.979Z,3.92
2018-01-11T01:12:15.970Z,3.88
2018-01-11T01:14:09.340Z,3.89
2018-01-11T01:15:09.349Z,4.04
2018-01-11T01:17:02.764Z,4.06
2018-01-11T01:18:02.728Z,3.96
2018-01-11T01:19:56.317Z,4.06
2018-01-11T01:20:56.214Z,4.03
2018-01-11T01:22:49.617Z,3.94
2018-01-11T01:23:49.597Z,3.92
2018-01-11T01:25:42.998Z,4.06
2018-01-11T01:26:43.018Z,4.04
2018-01-11T01:28:36.390Z,4.01
2018-01-11T01:29:36.391Z,4.04
2018-01-11T01:31:29.759Z,4.16
2018-01-11T01:32:29.807Z,4.16
2018-01-11T01:34:23.184Z,4.12
2018-01-11T01:35:23.145Z,4.18
2018-01-11T01:37:16.538Z,4.14
2018-01-11T01:38:16.542Z,4.06
2018-01-11T01:40:09.959Z,3.82
2018-01-11T01:41:09.921Z,3.92
2018-01-11T01:43:03.298Z,3.89
2018-01-11T01:44:03.323Z,3.90
2018-01-11T01:45:56.699Z,3.97
2018-01-11T01:46:56.684Z,3.94
2018-01-11T01:48:50.111Z,3.96
2018-01-11T01:49:50.104Z,3.97
2018-01-11T01:51:43.495Z,3.75
2018-01-11T01:52:43.450Z,3.70
2018-01-11T01:54:36.854Z,3.50
2018-01-11T01:55:36.864Z,3.39
2018-01-11T01:57:30.292Z,3.09
2018-01-11T01:58:30.275Z,3.02
2018-01-11T02:00:23.671Z,3.05
2018-01-11T02:01:23.665Z,2.97
2018-01-11T02:03:17.084Z,2.76
2018-01-11T02:04:17.061Z,2.77
2018-01-11T02:06:10.448Z,2.67
2018-01-11T02:07:10.466Z,2.52
2018-01-11T02:09:03.845Z,2.46
2018-01-11T02:10:03.827Z,2.40
2018-01-11T02:11:57.202Z,2.58
2018-01-11T02:12:57.206Z,2.41
2018-01-11T02:14:50.606Z,2.58
2018-01-11T02:15:50.591Z,2.52
2018-01-11T02:17:43.992Z,2.58
2018-01-11T02:18:43.970Z,2.59
2018-01-11T02:20:37.372Z,2.71
2018-01-11T02:21:37.353Z,2.66
2018-01-11T02:23:30.752Z,2.59
2018-01-11T02:24:30.741Z,2.64
2018-01-11T02:26:24.144Z,2.55
2018-01-11T02:27:24.170Z,2.46
2018-01-11T02:29:17.538Z,2.49
2018-01-11T02:30:17.526Z,2.51
2018-01-11T02:32:10.950Z,2.52
2018-01-11T02:33:10.939Z,2.44
2018-01-11T02:35:04.298Z,2.34
2018-01-11T02:36:04.327Z,2.30
2018-01-11T02:37:57.703Z,2.20
2018-01-11T02:38:57.695Z,2.16
2018-01-11T02:40:51.083Z,2.34
2018-01-11T02:41:51.063Z,2.31
2018-01-11T02:43:44.444Z,2.41
2018-01-11T02:44:44.451Z,2.34
2018-01-11T02:46:37.884Z,2.40
2018-01-11T02:47:37.833Z,2.38
2018-01-11T02:49:31.210Z,2.26
2018-01-11T02:50:31.223Z,2.34
2018-01-11T02:52:24.615Z,2.27
2018-01-11T02:53:24.595Z,2.15
2018-01-11T02:55:17.974Z,2.09
2018-01-11T02:56:17.988Z,1.93
2018-01-11T02:58:11.394Z,1.90
2018-01-11T02:59:11.381Z,1.91
2018-01-11T03:01:04.772Z,1.90
2018-01-11T03:02:04.764Z,1.94
2018-01-11T03:03:58.130Z,2.12
2018-01-11T03:04:58.133Z,2.08
2018-01-11T03:06:51.533Z,2.08
2018-01-11T03:07:51.519Z,1.91
2018-01-11T03:09:44.917Z,1.90
2018-01-11T03:10:44.917Z,1.97
2018-01-11T03:12:38.324Z,2.04
2018-01-11T03:13:38.290Z,2.01
2018-01-11T03:15:31.685Z,2.17
2018-01-11T03:16:31.670Z,2.04
2018-01-11T03:18:25.116Z,2.01
2018-01-11T03:19:25.080Z,1.90
2018-01-11T03:21:18.472Z,1.87
2018-01-11T03:22:18.470Z,1.75
2018-01-11T03:24:11.859Z,1.79
2018-01-11T03:25:11.848Z,1.68
2018-01-11T03:27:05.309Z,1.76
2018-01-11T03:28:05.282Z,1.79
2018-01-11T03:29:58.691Z,1.78
2018-01-11T03:30:58.660Z,1.87
2018-01-11T03:32:52.066Z,1.89
2018-01-11T03:33:52.041Z,2.19
2018-01-11T03:35:45.429Z,2.16
2018-01-11T03:36:45.436Z,2.20
2018-01-11T03:38:38.872Z,2.16
2018-01-11T03:39:38.842Z,2.17
2018-01-11T03:41:32.261Z,2.04
2018-01-11T03:42:32.233Z,2.10
2018-01-11T03:44:25.615Z,2.06
2018-01-11T03:45:25.628Z,2.04
2018-01-11T03:47:19.012Z,2.16
2018-01-11T03:48:19.016Z,2.06
2018-01-11T03:50:12.399Z,1.91
2018-01-11T03:51:12.428Z,1.93
2018-01-11T03:53:05.777Z,1.93
2018-01-11T03:54:05.757Z,1.76
2018-01-11T03:55:59.154Z,1.72
2018-01-11T03:56:59.168Z,1.65
2018-01-11T03:58:52.562Z,1.80
2018-01-11T03:59:52.540Z,1.68
2018-01-11T04:01:46.001Z,1.69
2018-01-11T04:02:45.954Z,1.73
2018-01-11T04:04:39.311Z,1.69
2018-01-11T04:05:39.319Z,1.65
2018-01-11T04:07:32.748Z,1.76
2018-01-11T04:08:32.735Z,1.76
2018-01-11T04:10:26.091Z,1.65
2018-01-11T04:11:26.133Z,1.65
2018-01-11T04:13:19.505Z,1.78
2018-01-11T04:14:19.541Z,1.78
2018-01-11T04:16:12.896Z,1.79
2018-01-11T04:17:12.952Z,1.83
2018-01-11T04:19:06.268Z,1.90
2018-01-11T04:20:06.243Z,1.90
2018-01-11T04:21:59.634Z,2.08
2018-01-11T04:22:59.616Z,2.08
2018-01-11T04:24:53.042Z,2.10
2018-01-11T04:25:53.002Z,2.12
2018-01-11T04:27:46.443Z,2.06
2018-01-11T04:28:46.404Z,2.12
2018-01-11T04:30:39.767Z,2.16
2018-01-11T04:31:39.808Z,2.19
2018-01-11T04:33:33.199Z,2.01
2018-01-11T04:34:33.160Z,1.75
2018-01-11T04:36:26.533Z,1.68
2018-01-11T04:37:27.172Z,1.44
2018-01-11T04:39:19.963Z,1.34
2018-01-11T04:40:19.988Z,1.15
2018-01-11T04:42:13.314Z,1.19
2018-01-11T04:43:13.318Z,1.07
2018-01-11T04:45:06.738Z,1.03
2018-01-11T04:46:06.718Z,1.08
2018-01-11T04:48:00.118Z,1.32
2018-01-11T04:49:00.097Z,1.32
2018-01-11T04:50:53.489Z,1.29
2018-01-11T04:51:53.476Z,1.24
2018-01-11T04:53:46.889Z,1.32
2018-01-11T04:54:46.900Z,1.37
2018-01-11T04:56:40.311Z,1.46
2018-01-11T04:57:40.295Z,1.33
2018-01-11T04:59:33.670Z,1.39
2018-01-11T05:00:33.652Z,1.36
2018-01-11T05:02:27.266Z,1.24
2018-01-11T05:03:27.230Z,1.24
2018-01-11T05:05:20.632Z,1.25
2018-01-11T05:06:20.632Z,1.43
2018-01-11T05:08:14.016Z,1.55
2018-01-11T05:09:14.008Z,1.55
2018-01-11T05:11:07.372Z,1.65
2018-01-11T05:12:07.364Z,1.69
2018-01-11T05:14:00.763Z,1.79
2018-01-11T05:15:00.754Z,1.87
2018-01-11T05:16:54.140Z,1.91
2018-01-11T05:17:54.149Z,1.91
2018-01-11T05:19:47.560Z,1.87
2018-01-11T05:20:47.534Z,1.87
2018-01-11T05:22:40.920Z,1.82
2018-01-11T05:23:40.940Z,1.64
2018-01-11T05:25:34.332Z,1.57
2018-01-11T05:26:34.308Z,1.47
2018-01-11T05:28:27.706Z,1.42
2018-01-11T05:29:27.685Z,1.34
2018-01-11T05:31:21.071Z,1.22
2018-01-11T05:32:21.071Z,1.32
2018-01-11T05:34:14.465Z,1.43
2018-01-11T05:35:14.442Z,1.33
2018-01-11T05:37:07.827Z,1.55
2018-01-11T05:38:07.824Z,1.58
2018-01-11T05:40:01.310Z,1.72
2018-01-11T05:41:01.277Z,1.71
2018-01-11T05:42:54.651Z,1.68
2018-01-11T05:43:54.664Z,1.79
2018-01-11T05:45:48.055Z,1.89
2018-01-11T05:46:48.082Z,1.90
2018-01-11T05:48:41.478Z,1.87
2018-01-11T05:49:41.448Z,1.79
2018-01-11T05:51:34.858Z,1.73
2018-01-11T05:52:34.836Z,1.64
2018-01-11T05:54:28.219Z,1.72
2018-01-11T05:55:28.201Z,1.75
2018-01-11T05:57:21.575Z,1.79
2018-01-11T05:58:21.577Z,1.73
2018-01-11T06:00:15.998Z,1.83
2018-01-11T06:01:15.967Z,1.87
2018-01-11T06:03:09.356Z,1.89
2018-01-11T06:04:09.341Z,1.99
2018-01-11T06:06:02.756Z,1.97
2018-01-11T06:07:02.716Z,2.06
2018-01-11T06:08:56.118Z,2.04
2018-01-11T06:09:56.103Z,2.10
2018-01-11T06:11:49.486Z,2.13
2018-01-11T06:12:49.478Z,2.16
2018-01-11T06:14:42.897Z,2.16
2018-01-11T06:15:42.868Z,2.19
2018-01-11T06:17:36.250Z,2.17
2018-01-11T06:18:36.249Z,2.06
2018-01-11T06:20:29.669Z,2.01
2018-01-11T06:21:29.646Z,2.08
2018-01-11T06:23:23.014Z,2.01
2018-01-11T06:24:23.022Z,2.12
2018-01-11T06:26:16.417Z,1.87
2018-01-11T06:27:16.397Z,1.85
2018-01-11T06:29:09.805Z,1.78
2018-01-11T06:30:09.779Z,1.68
2018-01-11T06:32:03.158Z,1.68
2018-01-11T06:33:03.158Z,1.76
2018-01-11T06:34:56.566Z,1.75
2018-01-11T06:35:56.557Z,1.62
2018-01-11T06:37:49.940Z,1.58
2018-01-11T06:38:49.927Z,1.43
2018-01-11T06:40:43.332Z,1.33
2018-01-11T06:41:43.306Z,1.32
2018-01-11T06:43:36.701Z,1.32
2018-01-11T06:44:36.698Z,1.34
2018-01-11T06:46:30.112Z,1.44
2018-01-11T06:47:30.080Z,1.44
2018-01-11T06:49:23.460Z,1.55
2018-01-11T06:50:23.470Z,1.65
2018-01-11T06:52:16.865Z,1.69
2018-01-11T06:53:16.851Z,1.80
2018-01-11T06:55:11.324Z,1.72
2018-01-11T06:56:11.283Z,1.58
2018-01-11T06:58:04.656Z,1.47
2018-01-11T06:59:04.658Z,1.44
2018-01-11T07:00:58.056Z,1.54
2018-01-11T07:01:58.034Z,1.51
2018-01-11T07:03:51.414Z,1.64
2018-01-11T07:04:51.417Z,1.51
2018-01-11T07:06:44.817Z,1.79
2018-01-11T07:07:44.797Z,1.73
2018-01-11T07:09:38.198Z,1.85
2018-01-11T07:10:38.193Z,1.93
2018-01-11T07:12:31.589Z,1.99
2018-01-11T07:13:31.581Z,2.02
2018-01-11T07:15:24.979Z,2.10
2018-01-11T07:16:24.938Z,2.12
2018-01-11T07:18:18.317Z,2.09
2018-01-11T07:19:18.327Z,2.15
2018-01-11T07:21:11.723Z,2.09
2018-01-11T07:22:11.703Z,2.19
2018-01-11T07:24:05.082Z,2.17
2018-01-11T07:25:05.082Z,2.22
2018-01-11T07:26:58.485Z,2.04
2018-01-11T07:27:58.464Z,2.08
2018-01-11T07:29:51.871Z,1.75
2018-01-11T07:30:51.852Z,1.83
2018-01-11T07:32:45.263Z,1.76
2018-01-11T07:33:45.280Z,1.75
2018-01-11T07:35:38.672Z,1.75
2018-01-11T07:36:38.645Z,1.76
2018-01-11T07:38:32.025Z,1.61
2018-01-11T07:39:32.025Z,1.62
2018-01-11T07:41:25.425Z,1.65
2018-01-11T07:42:25.412Z,1.57
2018-01-11T07:44:18.784Z,1.72
2018-01-11T07:45:18.787Z,1.73
2018-01-11T07:47:12.203Z,1.78
2018-01-11T07:48:12.174Z,1.76
2018-01-11T07:50:05.556Z,1.80
2018-01-11T07:51:05.560Z,1.73
2018-01-11T07:52:58.959Z,1.83
2018-01-11T07:53:58.938Z,1.87
2018-01-11T07:55:52.349Z,1.90
2018-01-11T07:56:52.327Z,1.93
2018-01-11T07:58:45.732Z,1.82
2018-01-11T07:59:45.728Z,1.80
2018-01-11T08:01:39.120Z,1.83
2018-01-11T08:02:39.098Z,1.83
2018-01-11T08:04:32.476Z,2.02
2018-01-11T08:05:32.479Z,2.10
2018-01-11T08:07:25.878Z,2.13
2018-01-11T08:08:25.859Z,2.19
2018-01-11T08:10:19.265Z,2.34
2018-01-11T08:11:19.265Z,2.40
2018-01-11T08:13:12.669Z,2.40
2018-01-11T08:14:12.649Z,2.51
2018-01-11T08:16:06.046Z,2.49
2018-01-11T08:17:06.027Z,2.58
2018-01-11T08:18:59.431Z,2.64
2018-01-11T08:19:59.409Z,2.59
2018-01-11T08:21:52.813Z,2.79
2018-01-11T08:22:52.791Z,2.69
2018-01-11T08:24:46.172Z,2.76
2018-01-11T08:25:46.173Z,2.77
2018-01-11T08:27:39.574Z,2.87
2018-01-11T08:28:39.553Z,2.77
2018-01-11T08:30:32.943Z,2.76
2018-01-11T08:31:32.937Z,2.84
2018-01-11T08:33:26.355Z,2.77
2018-01-11T08:34:26.322Z,2.84
2018-01-11T08:36:19.704Z,2.82
2018-01-11T08:37:19.705Z,2.81
2018-01-11T08:39:13.112Z,2.73
2018-01-11T08:40:13.086Z,2.81
2018-01-11T08:42:06.501Z,2.77
2018-01-11T08:43:06.477Z,2.79
2018-01-11T08:44:59.863Z,2.71
2018-01-11T08:45:59.866Z,2.70
2018-01-11T08:47:53.288Z,2.77
2018-01-11T08:48:53.266Z,2.82
2018-01-11T08:50:46.661Z,2.88
2018-01-11T08:51:46.661Z,2.91
2018-01-11T08:53:40.061Z,2.91
2018-01-11T08:54:40.041Z,2.92
2018-01-11T08:56:33.421Z,3.09
2018-01-11T08:57:33.424Z,3.13
2018-01-11T08:59:26.849Z,3.20
2018-01-11T09:00:26.818Z,3.18
2018-01-11T09:02:20.225Z,3.31
2018-01-11T09:03:20.210Z,3.31
2018-01-11T09:05:13.586Z,3.23
2018-01-11T09:06:13.588Z,3.27
2018-01-11T09:08:07.000Z,3.25
2018-01-11T09:09:06.980Z,3.27
2018-01-11T09:11:00.363Z,3.40
2018-01-11T09:12:00.364Z,3.28
2018-01-11T09:13:53.769Z,3.31
2018-01-11T09:14:53.751Z,3.36
2018-01-11T09:16:47.130Z,3.43
2018-01-11T09:17:47.132Z,3.43
2018-01-11T09:19:40.544Z,3.50
2018-01-11T09:20:40.515Z,3.53
2018-01-11T09:22:33.917Z,3.67
2018-01-11T09:23:33.897Z,3.67
2018-01-11T09:25:27.280Z,3.88
2018-01-11T09:26:27.280Z,3.76
2018-01-11T09:28:20.682Z,3.75
2018-01-11T09:29:20.672Z,3.68
2018-01-11T09:31:14.056Z,3.70
2018-01-11T09:32:14.057Z,3.89
2018-01-11T09:34:07.464Z,4.00
2018-01-11T09:35:07.448Z,4.16
2018-01-11T09:37:00.826Z,4.25
2018-01-11T09:38:00.827Z,4.26
2018-01-11T09:39:54.229Z,4.29
2018-01-11T09:40:54.210Z,4.36
2018-01-11T09:42:47.614Z,4.77
2018-01-11T09:43:47.593Z,4.88
2018-01-11T09:45:40.988Z,5.02
2018-01-11T09:46:40.988Z,4.89
2018-01-11T09:48:34.403Z,4.94
2018-01-11T09:49:34.385Z,4.80
2018-01-11T09:51:27.765Z,4.80
2018-01-11T09:52:27.767Z,4.65
2018-01-11T09:54:21.181Z,4.67
2018-01-11T09:55:21.154Z,4.67
2018-01-11T09:57:14.537Z,4.59
2018-01-11T09:58:14.548Z,4.58
2018-01-11T10:00:07.941Z,4.32
2018-01-11T10:01:07.925Z,4.40
2018-01-11T10:03:01.332Z,4.39
2018-01-11T10:04:01.311Z,4.36
2018-01-11T10:05:54.692Z,4.42
2018-01-11T10:06:54.695Z,4.37
2018-01-11T10:08:48.102Z,4.47
2018-01-11T10:09:48.080Z,4.44
2018-01-11T10:11:41.467Z,4.55
2018-01-11T10:12:41.465Z,4.58
2018-01-11T10:14:34.874Z,4.67
2018-01-11T10:15:34.856Z,4.72
2018-01-11T10:17:28.236Z,4.65
2018-01-11T10:18:28.238Z,4.64
2018-01-11T10:20:21.645Z,4.61
2018-01-11T10:21:21.624Z,4.58
2018-01-11T10:23:15.028Z,4.36
2018-01-11T10:24:15.036Z,4.42
2018-01-11T10:26:08.436Z,4.39
2018-01-11T10:27:08.414Z,4.39
2018-01-11T10:29:01.829Z,4.42
2018-01-11T10:30:01.812Z,4.39
2018-01-11T10:31:55.197Z,4.42
2018-01-11T10:32:55.200Z,4.57
2018-01-11T10:34:48.640Z,4.62
2018-01-11T10:35:48.588Z,4.69
2018-01-11T10:37:41.972Z,4.59
2018-01-11T10:38:41.972Z,4.58
2018-01-11T10:40:35.378Z,4.64
2018-01-11T10:41:35.357Z,4.67
2018-01-11T10:43:28.753Z,4.76
2018-01-11T10:44:28.753Z,4.75
2018-01-11T10:46:22.159Z,4.86
2018-01-11T10:47:22.141Z,4.88
2018-01-11T10:49:15.553Z,4.84
2018-01-11T10:50:15.527Z,4.99
2018-01-11T10:52:08.915Z,4.84
2018-01-11T10:53:08.914Z,5.04
2018-01-11T10:55:02.346Z,5.14
2018-01-11T10:56:02.325Z,5.20
2018-01-11T10:57:55.710Z,5.41
2018-01-11T10:58:55.715Z,5.41
2018-01-11T11:00:49.120Z,5.41
2018-01-11T11:01:49.101Z,5.34
2018-01-11T11:03:42.483Z,5.16
2018-01-11T11:04:42.487Z,5.19
2018-01-11T11:06:35.900Z,5.13
2018-01-11T11:07:35.872Z,5.27
2018-01-11T11:09:29.290Z,5.46
2018-01-11T11:10:29.270Z,5.23
2018-01-11T11:12:22.663Z,5.28
2018-01-11T11:13:22.667Z,5.40
2018-01-11T11:15:16.084Z,5.40
2018-01-11T11:16:16.071Z,5.40
2018-01-11T11:18:09.449Z,5.30
2018-01-11T11:19:09.455Z,5.34
2018-01-11T11:21:02.877Z,5.27
2018-01-11T11:22:02.842Z,5.32
2018-01-11T11:23:56.228Z,5.27
2018-01-11T11:24:56.232Z,5.38
2018-01-11T11:26:49.643Z,5.31
2018-01-11T11:27:49.637Z,5.41
2018-01-11T11:29:43.030Z,5.46
2018-01-11T11:30:43.011Z,5.37
2018-01-11T11:32:36.425Z,5.25
2018-01-11T11:33:36.402Z,5.14
2018-01-11T11:35:29.829Z,5.25
2018-01-11T11:36:29.790Z,5.20
2018-01-11T11:38:23.190Z,5.17
2018-01-11T11:39:23.190Z,5.23
2018-01-11T11:41:16.598Z,5.40
2018-01-11T11:42:16.581Z,5.40
2018-01-11T11:44:09.966Z,5.41
2018-01-11T11:45:09.969Z,5.35
2018-01-11T11:47:03.384Z,5.17
2018-01-11T11:48:03.362Z,5.13
2018-01-11T11:49:56.770Z,5.05
2018-01-11T11:50:56.746Z,4.96
2018-01-11T11:52:50.134Z,4.99
2018-01-11T11:53:50.136Z,4.92
2018-01-11T11:55:43.542Z,5.09
2018-01-11T11:56:43.524Z,5.16
2018-01-11T11:58:36.923Z,5.19
2018-01-11T11:59:36.944Z,5.17
2018-01-11T12:01:30.323Z,4.99
2018-01-11T12:02:30.304Z,5.04
2018-01-11T12:04:23.691Z,5.16
2018-01-11T12:05:23.692Z,5.16
2018-01-11T12:07:17.113Z,5.28
2018-01-11T12:08:17.088Z,5.19
2018-01-11T12:10:10.496Z,5.34
2018-01-11T12:11:10.482Z,5.40
2018-01-11T12:13:03.889Z,5.45
2018-01-11T12:14:03.869Z,5.40
2018-01-11T12:15:57.287Z,5.40
2018-01-11T12:16:57.259Z,5.41
2018-01-11T12:18:50.656Z,5.41
2018-01-11T12:19:50.648Z,5.40
2018-01-11T12:21:44.107Z,5.38
2018-01-11T12:22:44.042Z,5.35
2018-01-11T12:24:37.420Z,5.28
2018-01-11T12:25:37.426Z,5.41
2018-01-11T12:27:30.830Z,5.38
2018-01-11T12:28:30.814Z,5.37
2018-01-11T12:30:24.197Z,5.34
2018-01-11T12:31:24.201Z,5.37
2018-01-11T12:33:17.616Z,5.38
2018-01-11T12:34:17.593Z,5.40
2018-01-11T12:36:11.008Z,5.59
2018-01-11T12:37:10.997Z,5.70
2018-01-11T12:39:04.373Z,5.70
2018-01-11T12:40:04.393Z,5.81
2018-01-11T12:41:57.786Z,5.74
2018-01-11T12:42:57.781Z,5.77
2018-01-11T12:44:51.164Z,5.74
2018-01-11T12:45:51.164Z,5.83
2018-01-11T12:47:44.591Z,5.74
2018-01-11T12:48:44.557Z,5.70
2018-01-11T12:50:37.952Z,5.55
2018-01-11T12:51:37.942Z,5.67
2018-01-11T12:53:31.360Z,5.68
2018-01-11T12:54:31.358Z,5.57
2018-01-11T12:56:24.956Z,5.57
2018-01-11T12:57:24.935Z,5.48
2018-01-11T12:59:18.322Z,5.50
2018-01-11T13:00:18.330Z,5.52
2018-01-11T13:02:11.737Z,5.59
2018-01-11T13:03:11.714Z,5.67
2018-01-11T13:05:05.102Z,5.68
2018-01-11T13:06:05.102Z,5.67
2018-01-11T13:07:58.511Z,5.67
2018-01-11T13:08:58.496Z,5.55
2018-01-11T13:10:51.879Z,5.68
2018-01-11T13:11:51.888Z,5.67
2018-01-11T13:13:45.286Z,5.68
2018-01-11T13:14:45.268Z,5.73
2018-01-11T13:16:38.695Z,5.57
2018-01-11T13:17:38.660Z,5.49
2018-01-11T13:19:32.043Z,5.52
2018-01-11T13:20:32.049Z,5.45
2018-01-11T13:22:25.477Z,5.37
2018-01-11T13:23:25.434Z,5.23
2018-01-11T13:25:18.819Z,5.27
2018-01-11T13:26:18.822Z,5.25
2018-01-11T13:28:12.290Z,5.25
2018-01-11T13:29:12.269Z,5.28
2018-01-11T13:31:05.662Z,5.17
2018-01-11T13:32:05.676Z,5.19
2018-01-11T13:33:59.084Z,5.22
2018-01-11T13:34:59.064Z,5.16
2018-01-11T13:36:52.452Z,5.28
2018-01-11T13:37:52.454Z,5.19
2018-01-11T13:39:45.872Z,5.14
2018-01-11T13:40:45.850Z,5.17
2018-01-11T13:42:39.265Z,5.17
2018-01-11T13:43:39.247Z,5.12
2018-01-11T13:45:32.630Z,5.25
2018-01-11T13:46:32.628Z,5.12
2018-01-11T13:48:26.034Z,5.19
2018-01-11T13:49:26.022Z,5.13
2018-01-11T13:51:19.410Z,4.80
2018-01-11T13:52:19.410Z,4.83
2018-01-11T13:54:12.823Z,4.91
2018-01-11T13:55:12.814Z,4.99
2018-01-11T13:57:06.194Z,4.83
2018-01-11T13:58:06.215Z,4.96
2018-01-11T13:59:59.603Z,4.95
2018-01-11T14:00:59.964Z,5.02
2018-01-11T14:02:52.997Z,5.01
2018-01-11T14:03:52.974Z,4.99
2018-01-11T14:05:46.363Z,5.01
2018-01-11T14:06:46.362Z,4.94
2018-01-11T14:08:39.767Z,4.89
2018-01-11T14:09:39.748Z,4.98
2018-01-11T14:11:33.140Z,4.94
2018-01-11T14:12:33.157Z,4.86
2018-01-11T14:14:26.541Z,4.89
2018-01-11T14:15:26.524Z,5.01
2018-01-11T14:17:19.920Z,5.02
2018-01-11T14:18:19.925Z,5.05
2018-01-11T14:20:13.312Z,4.89
2018-01-11T14:21:13.301Z,4.88
2018-01-11T14:23:06.715Z,4.86
2018-01-11T14:24:06.681Z,4.70
2018-01-11T14:26:00.065Z,4.83
2018-01-11T14:27:00.063Z,4.80
2018-01-11T14:28:53.499Z,4.76
2018-01-11T14:29:53.483Z,4.76
2018-01-11T14:31:46.890Z,4.52
2018-01-11T14:32:46.892Z,4.59
2018-01-11T14:34:40.297Z,4.59
2018-01-11T14:35:40.292Z,4.65
2018-01-11T14:37:33.674Z,4.65
2018-01-11T14:38:33.671Z,4.69
2018-01-11T14:40:27.078Z,4.72
2018-01-11T14:41:27.061Z,4.76
2018-01-11T14:43:20.464Z,4.73
2018-01-11T14:44:20.445Z,4.79
2018-01-11T14:46:13.826Z,4.75
2018-01-11T14:47:13.826Z,4.72
2018-01-11T14:49:07.243Z,4.75
2018-01-11T14:50:07.214Z,4.75
2018-01-11T14:52:00.599Z,4.79
2018-01-11T14:53:00.602Z,4.73
2018-01-11T14:54:54.018Z,4.80
2018-01-11T14:55:53.981Z,4.86
2018-01-11T14:57:47.368Z,4.84
2018-01-11T14:58:47.368Z,4.83
2018-01-11T15:00:40.774Z,4.79
2018-01-11T15:01:40.754Z,4.84
2018-01-11T15:03:34.223Z,4.95
2018-01-11T15:04:34.199Z,4.94
2018-01-11T15:06:27.766Z,4.99
2018-01-11T15:07:27.757Z,4.94
2018-01-11T15:09:21.163Z,5.01
2018-01-11T15:10:21.143Z,4.99
2018-01-11T15:12:14.549Z,5.05
2018-01-11T15:13:14.542Z,4.95
2018-01-11T15:15:07.950Z,5.01
2018-01-11T15:16:07.939Z,4.95
2018-01-11T15:18:01.318Z,4.96
2018-01-11T15:19:01.329Z,4.86
2018-01-11T15:20:54.734Z,4.72
2018-01-11T15:21:54.705Z,4.73
2018-01-11T15:23:48.117Z,4.69
2018-01-11T15:24:48.092Z,4.62
2018-01-11T15:26:41.487Z,4.64
2018-01-11T15:27:41.492Z,4.65
2018-01-11T15:29:34.893Z,4.69
2018-01-11T15:30:34.881Z,4.67
2018-01-11T15:32:28.259Z,4.76
2018-01-11T15:33:28.261Z,4.77
2018-01-11T15:35:21.670Z,4.67
2018-01-11T15:36:21.651Z,4.80
2018-01-11T15:38:15.034Z,4.79
2018-01-11T15:39:15.037Z,4.77
2018-01-11T15:41:08.437Z,4.77
2018-01-11T15:42:08.434Z,4.72
2018-01-11T15:44:01.829Z,4.83
2018-01-11T15:45:01.810Z,4.88
2018-01-11T15:46:55.210Z,4.88
2018-01-11T15:47:55.190Z,4.96
2018-01-11T15:49:48.603Z,5.13
2018-01-11T15:50:48.582Z,5.07
2018-01-11T15:52:41.965Z,4.96
2018-01-11T15:53:41.975Z,4.98
2018-01-11T15:55:35.371Z,4.96
2018-01-11T15:56:35.354Z,4.92
2018-01-11T15:58:28.806Z,4.99
2018-01-11T15:59:28.807Z,4.99
2018-01-11T16:01:22.214Z,4.86
2018-01-11T16:02:22.193Z,4.98
2018-01-11T16:04:15.576Z,4.86
2018-01-11T16:05:15.579Z,4.76
2018-01-11T16:07:08.994Z,4.70
2018-01-11T16:08:08.963Z,4.77
2018-01-11T16:10:02.366Z,4.83
2018-01-11T16:11:02.349Z,4.88
2018-01-11T16:12:55.727Z,4.83
2018-01-11T16:13:55.732Z,4.95
2018-01-11T16:15:49.142Z,4.86
2018-01-11T16:16:49.123Z,4.83
2018-01-11T16:18:42.547Z,4.83
2018-01-11T16:19:42.510Z,4.89
2018-01-11T16:21:35.918Z,4.83
2018-01-11T16:22:35.897Z,4.86
2018-01-11T16:24:29.281Z,4.88
2018-01-11T16:25:29.283Z,4.86
2018-01-11T16:27:22.703Z,4.84
2018-01-11T16:28:22.670Z,4.86
2018-01-11T16:30:16.076Z,4.91
2018-01-11T16:31:16.058Z,4.83
2018-01-11T16:33:09.441Z,4.86
2018-01-11T16:34:09.453Z,4.86
2018-01-11T16:36:02.851Z,4.86
2018-01-11T16:37:02.867Z,4.69
2018-01-11T16:38:56.267Z,4.67
2018-01-11T16:39:56.267Z,4.75
2018-01-11T16:41:49.676Z,4.75
2018-01-11T16:42:49.656Z,4.79
2018-01-11T16:44:43.060Z,4.76
2018-01-11T16:45:43.077Z,4.75
2018-01-11T16:47:36.455Z,4.77
2018-01-11T16:48:36.434Z,4.76
2018-01-11T16:50:29.841Z,4.79
2018-01-11T16:51:29.825Z,4.76
2018-01-11T16:53:23.270Z,4.80
2018-01-11T16:54:23.273Z,4.72
2018-01-11T16:56:16.675Z,4.67
2018-01-11T16:57:16.658Z,4.70
2018-01-11T16:59:10.036Z,4.58
2018-01-11T17:00:10.038Z,4.57
2018-01-11T17:02:03.497Z,4.54
2018-01-11T17:03:03.431Z,4.47
2018-01-11T17:04:56.804Z,4.39
2018-01-11T17:05:56.806Z,4.46
2018-01-11T17:07:50.210Z,4.40
2018-01-11T17:08:50.198Z,4.51
2018-01-11T17:10:43.783Z,4.59
2018-01-11T17:11:43.785Z,4.52
2018-01-11T17:13:37.189Z,4.65
2018-01-11T17:14:37.171Z,4.75
2018-01-11T17:16:30.577Z,4.65
2018-01-11T17:17:30.555Z,4.77
2018-01-11T17:19:24.939Z,4.84
2018-01-11T17:20:24.939Z,4.73
2018-01-11T17:22:18.346Z,4.76
2018-01-11T17:23:18.323Z,4.73
2018-01-11T17:25:11.716Z,4.77
2018-01-11T17:26:11.720Z,4.75
2018-01-11T17:28:05.124Z,4.79
2018-01-11T17:29:05.104Z,4.64
2018-01-11T17:30:58.487Z,4.65
2018-01-11T17:31:58.493Z,4.62
2018-01-11T17:33:51.893Z,4.65
2018-01-11T17:34:51.873Z,4.75
2018-01-11T17:36:45.285Z,4.72
2018-01-11T17:37:45.268Z,4.76
2018-01-11T17:39:38.648Z,4.73
2018-01-11T17:40:38.654Z,4.62
2018-01-11T17:42:32.059Z,4.59
2018-01-11T17:43:32.038Z,4.59
2018-01-11T17:45:25.431Z,4.42
2018-01-11T17:46:25.432Z,4.52
2018-01-11T17:48:18.838Z,4.42
2018-01-11T17:49:18.818Z,4.46
2018-01-11T17:51:12.274Z,4.40
2018-01-11T17:52:12.279Z,4.59
2018-01-11T17:54:05.692Z,4.52
2018-01-11T17:55:05.672Z,4.65
2018-01-11T17:56:59.081Z,4.65
2018-01-11T17:57:59.056Z,4.62
2018-01-11T17:59:52.436Z,4.57
2018-01-11T18:00:52.440Z,4.61
2018-01-11T18:02:45.853Z,4.47
2018-01-11T18:03:45.834Z,4.42
2018-01-11T18:05:39.319Z,4.55
2018-01-11T18:06:39.216Z,4.59
2018-01-11T18:08:32.644Z,4.67
2018-01-11T18:09:32.618Z,4.59
2018-01-11T18:11:26.004Z,4.54
2018-01-11T18:12:26.004Z,4.59
2018-01-11T18:14:19.405Z,4.67
2018-01-11T18:15:19.387Z,4.76
2018-01-11T18:17:12.803Z,4.83
2018-01-11T18:18:12.779Z,4.83
2018-01-11T18:20:06.166Z,4.94
2018-01-11T18:21:06.169Z,5.01
2018-01-11T18:22:59.569Z,4.94
2018-01-11T18:23:59.558Z,4.96
2018-01-11T18:25:52.933Z,5.13
2018-01-11T18:26:52.935Z,5.10
2018-01-11T18:28:46.350Z,5.19
2018-01-11T18:29:46.332Z,5.19
2018-01-11T18:31:39.715Z,5.13
2018-01-11T18:32:39.715Z,5.12
2018-01-11T18:34:33.127Z,4.96
2018-01-11T18:35:33.109Z,4.91
2018-01-11T18:37:26.560Z,4.86
2018-01-11T18:38:26.504Z,4.88
2018-01-11T18:40:19.887Z,5.02
2018-01-11T18:41:19.895Z,4.98
2018-01-11T18:43:13.318Z,5.07
2018-01-11T18:44:13.300Z,5.01
2018-01-11T18:46:06.693Z,4.95
2018-01-11T18:47:06.694Z,4.98
2018-01-11T18:49:00.110Z,4.88
2018-01-11T18:50:00.090Z,4.96
2018-01-11T18:51:53.470Z,4.95
2018-01-11T18:52:53.494Z,4.88
2018-01-11T18:54:46.889Z,4.84
2018-01-11T18:55:46.870Z,4.83
2018-01-11T18:57:40.287Z,4.98
2018-01-11T18:58:40.263Z,4.99
2018-01-11T19:00:33.742Z,4.96
2018-01-11T19:01:33.687Z,4.96
2018-01-11T19:03:27.090Z,5.09
2018-01-11T19:04:27.088Z,5.14
2018-01-11T19:06:20.452Z,5.02
2018-01-11T19:07:20.453Z,4.89
2018-01-11T19:09:13.867Z,4.80
2018-01-11T19:10:13.851Z,4.83
2018-01-11T19:12:07.294Z,4.80
2018-01-11T19:13:07.310Z,4.89